Time;durP1;ratioP1;P1;durP2;ratioP2;P2;SDS_P1;SDS_P2;PMS_P1;PMS_P2;Temp;Humidity;BMP_temperature;BMP_pressure;BME280_temperature;BME280_humidity;BME280_pressure;Samples;Min_cycle;Max_cycle;Signal;HPM_P1;HPM_P2
2021/11/07 00:01:56;;;;;;;8.37;5.87;;;;;;;0.95;92.43;96257.28;5072627;28;20173;-78
2021/11/07 00:12:21;;;;;;;9.40;5.90;;;;;;;0.93;92.30;96266.75;5051482;28;20181;-78
2021/11/07 00:14:49;;;;;;;11.13;7.37;;;;;;;0.85;92.34;96260.25;5075130;28;20194;-77
2021/11/07 00:17:17;;;;;;;12.90;8.13;;;;;;;0.81;92.55;96274.09;5064644;28;20197;-76
2021/11/07 00:19:46;;;;;;;7.03;5.37;;;;;;;0.82;92.55;96272.38;5070058;28;20197;-78
2021/11/07 00:22:20;;;;;;;7.03;5.43;;;;;;;0.85;92.66;96279.91;5069748;28;20177;-78
2021/11/07 00:24:52;;;;;;;7.23;4.60;;;;;;;0.99;93.16;96289.50;5070245;28;20188;-78
2021/11/07 00:27:26;;;;;;;7.23;5.10;;;;;;;1.13;93.46;96292.22;5069875;28;20173;-78
2021/11/07 00:35:45;;;;;;;8.93;5.10;;;;;;;1.55;93.58;96278.28;5069108;28;20330;-78
2021/11/07 00:38:16;;;;;;;6.17;4.90;;;;;;;1.67;93.79;96280.22;5078568;28;20222;-76
2021/11/07 00:40:52;;;;;;;7.70;5.03;;;;;;;1.76;93.87;96278.94;5070914;28;20201;-78
2021/11/07 00:43:43;;;;;;;9.40;5.10;;;;;;;1.82;93.92;96266.66;5070672;28;20226;-78
2021/11/07 00:46:16;;;;;;;6.70;5.40;;;;;;;1.90;93.87;96261.16;5070813;28;20174;-78
2021/11/07 00:48:48;;;;;;;5.87;4.83;;;;;;;1.94;93.38;96245.59;5087469;28;20208;-78
2021/11/07 00:51:23;;;;;;;9.53;5.87;;;;;;;1.96;93.35;96225.00;5087132;28;20205;-79
2021/11/07 00:56:44;;;;;;;8.70;6.10;;;;;;;2.03;93.88;96240.88;5070354;28;20205;-77
2021/11/07 00:59:30;;;;;;;9.67;6.67;;;;;;;2.15;92.90;96241.06;5070538;28;20203;-79
2021/11/07 01:02:20;;;;;;;9.87;5.97;;;;;;;2.11;93.40;96242.13;5070388;28;20195;-78
2021/11/07 01:04:48;;;;;;;10.43;6.97;;;;;;;2.01;93.08;96243.50;5070743;28;20676;-78
2021/11/07 01:07:15;;;;;;;8.60;6.67;;;;;;;1.98;93.31;96225.75;5072534;28;20193;-78
2021/11/07 01:09:41;;;;;;;12.77;7.20;;;;;;;2.02;93.37;96221.28;5077271;28;20283;-78
2021/11/07 01:12:07;;;;;;;10.57;6.80;;;;;;;1.95;93.02;96205.44;5069868;28;20239;-78
2021/11/07 01:14:32;;;;;;;9.67;7.57;;;;;;;1.95;93.46;96197.75;5070660;28;20221;-78
2021/11/07 01:16:58;;;;;;;12.77;8.23;;;;;;;1.99;93.36;96188.97;5071526;28;20216;-78
2021/11/07 01:19:23;;;;;;;12.40;6.97;;;;;;;1.96;93.45;96196.81;5070007;28;20672;-78
2021/11/07 01:21:49;;;;;;;12.60;6.90;;;;;;;1.98;93.95;96198.41;5071034;28;20220;-78
2021/11/07 01:26:45;;;;;;;9.97;7.37;;;;;;;2.04;94.29;96206.69;5069804;28;20181;-79
2021/11/07 01:29:14;;;;;;;11.60;7.97;;;;;;;2.03;93.63;96207.56;5069891;28;20197;-78
2021/11/07 01:31:40;;;;;;;11.57;7.23;;;;;;;2.02;93.83;96211.84;5071303;28;20212;-78
2021/11/07 01:34:10;;;;;;;11.33;6.93;;;;;;;2.03;93.99;96202.44;5069346;28;20188;-77
2021/11/07 01:36:40;;;;;;;10.40;7.63;;;;;;;2.01;94.07;96186.31;5072205;28;20245;-79
2021/11/07 01:39:11;;;;;;;12.43;7.67;;;;;;;2.08;94.01;96182.53;5061312;28;20273;-78
2021/11/07 01:41:59;;;;;;;9.13;6.50;;;;;;;2.02;93.62;96193.09;5088888;28;20647;-79
2021/11/07 01:44:26;;;;;;;10.10;6.03;;;;;;;2.03;93.30;96205.81;5097700;28;20184;-79
2021/11/07 01:46:55;;;;;;;9.50;6.53;;;;;;;2.04;92.94;96193.88;5096514;28;20192;-78
2021/11/07 01:49:23;;;;;;;9.17;7.40;;;;;;;2.02;92.35;96183.69;5076450;28;20212;-78
2021/11/07 01:51:59;;;;;;;13.30;7.30;;;;;;;2.03;93.08;96172.53;5076255;28;20169;-78
2021/11/07 01:54:27;;;;;;;10.07;6.53;;;;;;;1.98;92.45;96170.22;5075892;28;20226;-78
2021/11/07 01:56:52;;;;;;;10.90;6.93;;;;;;;1.96;92.77;96169.47;5093179;28;20209;-78
2021/11/07 01:59:18;;;;;;;7.67;6.47;;;;;;;1.96;92.71;96169.47;5076515;28;20227;-78
2021/11/07 02:01:49;;;;;;;9.43;6.03;;;;;;;1.95;92.36;96167.00;5076333;28;20173;-78
2021/11/07 02:04:15;;;;;;;8.70;5.97;;;;;;;1.94;92.67;96161.06;5075837;28;20182;-78
2021/11/07 02:06:40;;;;;;;7.13;5.60;;;;;;;1.90;92.14;96151.03;5093058;28;20199;-78
2021/11/07 02:09:06;;;;;;;9.17;6.90;;;;;;;1.86;92.01;96136.75;5071656;28;20660;-79
2021/11/07 02:11:31;;;;;;;6.17;5.43;;;;;;;1.87;92.46;96128.16;5093067;28;20214;-79
2021/11/07 02:13:57;;;;;;;9.33;6.03;;;;;;;1.84;92.40;96135.97;5075866;28;20215;-79
2021/11/07 02:16:22;;;;;;;8.90;6.03;;;;;;;1.78;91.96;96132.03;5093767;28;20568;-78
2021/11/07 02:18:48;;;;;;;8.17;5.83;;;;;;;1.81;91.99;96144.66;5093203;28;20181;-78
2021/11/07 02:21:13;;;;;;;8.77;5.50;;;;;;;1.84;91.23;96143.66;5093526;28;20212;-78
2021/11/07 02:23:38;;;;;;;8.83;5.87;;;;;;;1.74;91.62;96158.69;5075908;28;20845;-79
2021/11/07 02:26:05;;;;;;;5.97;5.37;;;;;;;1.68;91.91;96153.88;5090268;28;20721;-78
2021/11/07 02:28:45;;;;;;;9.17;5.93;;;;;;;1.67;91.53;96141.97;5077563;28;20192;-79
2021/11/07 02:31:14;;;;;;;8.90;5.80;;;;;;;1.69;90.97;96147.88;5076368;28;20207;-78
2021/11/07 02:33:40;;;;;;;7.47;5.80;;;;;;;1.66;91.28;96150.56;5075847;28;20276;-79
2021/11/07 02:36:09;;;;;;;10.57;6.50;;;;;;;1.63;91.38;96135.38;5076671;28;20197;-78
2021/11/07 02:38:35;;;;;;;7.40;6.47;;;;;;;1.61;91.78;96129.50;5079815;28;20191;-79
2021/11/07 02:41:00;;;;;;;8.80;6.43;;;;;;;1.65;91.51;96118.19;5080747;28;20204;-78
2021/11/07 02:43:26;;;;;;;11.90;7.40;;;;;;;1.56;91.54;96113.53;5076647;28;20170;-78
2021/11/07 02:45:51;;;;;;;10.70;6.97;;;;;;;1.52;91.71;96117.19;5059398;28;20177;-78
2021/11/07 02:48:17;;;;;;;9.33;6.90;;;;;;;1.47;91.74;96117.41;5076618;28;20763;-79
2021/11/07 02:50:42;;;;;;;7.27;6.17;;;;;;;1.42;91.78;96119.38;5076377;28;20197;-79
2021/11/07 02:53:08;;;;;;;8.43;6.33;;;;;;;1.33;91.84;96140.31;5055659;28;20196;-79
2021/11/07 02:55:33;;;;;;;10.63;6.03;;;;;;;1.23;92.32;96145.03;5072586;28;20209;-78
2021/11/07 02:58:00;;;;;;;10.20;7.20;;;;;;;1.18;92.40;96153.88;5073128;28;20673;-79
2021/11/07 03:00:28;;;;;;;7.10;6.13;;;;;;;1.12;92.31;96155.00;5073233;28;20288;-78
2021/11/07 03:02:53;;;;;;;7.77;6.27;;;;;;;1.05;92.37;96161.31;5055782;28;20181;-78
2021/11/07 03:05:19;;;;;;;10.57;5.97;;;;;;;0.98;92.35;96163.34;5055306;28;20191;-79
2021/11/07 03:07:45;;;;;;;10.57;6.40;;;;;;;0.92;92.52;96158.53;5061004;28;20261;-79
2021/11/07 03:10:12;;;;;;;7.53;6.10;;;;;;;0.87;92.57;96155.34;5073981;28;20321;-78
2021/11/07 03:12:37;;;;;;;7.20;5.90;;;;;;;0.82;92.53;96152.22;5080599;28;20205;-79
2021/11/07 03:15:05;;;;;;;9.73;5.87;;;;;;;0.75;92.45;96146.56;5055272;28;20631;-78
2021/11/07 03:17:30;;;;;;;8.63;5.90;;;;;;;0.68;92.57;96147.75;5072420;28;20959;-78
2021/11/07 03:19:56;;;;;;;9.67;6.63;;;;;;;0.65;93.00;96155.56;5072333;28;20197;-78
2021/11/07 03:22:24;;;;;;;9.17;6.93;;;;;;;0.71;92.97;96155.28;5055718;28;20669;-78
2021/11/07 03:24:54;;;;;;;7.97;6.57;;;;;;;0.64;93.09;96151.34;5071399;28;20201;-79
2021/11/07 03:27:30;;;;;;;9.40;5.93;;;;;;;0.74;92.54;96152.56;5073631;28;20173;-79
2021/11/07 03:29:59;;;;;;;9.30;6.40;;;;;;;0.68;93.27;96152.84;5055420;28;20201;-78
2021/11/07 03:32:28;;;;;;;9.00;6.43;;;;;;;0.63;93.28;96149.69;5071492;28;20199;-78
2021/11/07 03:34:56;;;;;;;9.87;6.73;;;;;;;0.57;93.43;96138.03;5065850;28;20181;-78
2021/11/07 03:37:24;;;;;;;11.57;7.07;;;;;;;0.55;93.81;96136.44;5070245;28;20299;-79
2021/11/07 03:39:53;;;;;;;7.67;6.23;;;;;;;0.52;93.93;96139.97;5071779;28;20748;-79
2021/11/07 03:42:18;;;;;;;10.40;8.07;;;;;;;0.49;94.02;96131.63;5072052;28;20192;-79
2021/11/07 03:44:44;;;;;;;8.87;7.10;;;;;;;0.48;94.17;96132.53;5071006;28;20177;-78
2021/11/07 03:47:10;;;;;;;14.10;8.43;;;;;;;0.44;93.78;96126.75;5080240;28;20634;-79
2021/11/07 03:49:37;;;;;;;10.97;7.90;;;;;;;0.38;94.57;96129.56;5083696;28;20200;-79
2021/11/07 03:52:03;;;;;;;10.67;7.40;;;;;;;0.42;94.46;96140.47;5091482;28;20172;-79
2021/11/07 03:54:30;;;;;;;11.03;7.30;;;;;;;0.42;94.38;96118.31;5091014;28;20337;-79
2021/11/07 03:56:58;;;;;;;10.83;6.93;;;;;;;0.40;94.12;96103.94;5086862;28;20196;-79
2021/11/07 03:59:24;;;;;;;9.80;6.73;;;;;;;0.43;93.87;96098.69;5080597;28;20575;-79
2021/11/07 04:01:50;;;;;;;10.90;7.27;;;;;;;0.42;94.24;96104.69;5054155;28;20189;-78
2021/11/07 04:04:16;;;;;;;11.33;7.40;;;;;;;0.42;94.33;96102.16;5070195;28;20180;-78
2021/11/07 04:06:41;;;;;;;11.50;7.20;;;;;;;0.42;94.50;96102.16;5070956;28;20562;-78
2021/11/07 04:09:09;;;;;;;11.03;7.87;;;;;;;0.38;94.67;96114.25;5062273;28;20220;-78
2021/11/07 04:11:35;;;;;;;10.03;7.27;;;;;;;0.39;94.52;96117.63;5071933;28;20185;-78
2021/11/07 04:14:01;;;;;;;17.23;10.90;;;;;;;0.36;94.32;96115.22;5070065;28;20192;-79
2021/11/07 04:16:26;;;;;;;16.50;11.73;;;;;;;0.30;94.33;96120.63;5071970;28;20196;-78
2021/11/07 04:18:51;;;;;;;12.43;8.37;;;;;;;0.24;94.30;96114.88;5073524;28;20534;-79
2021/11/07 04:21:17;;;;;;;11.00;7.43;;;;;;;0.27;94.80;96119.03;5068468;28;20180;-78
2021/11/07 04:23:42;;;;;;;12.53;7.37;;;;;;;0.22;94.65;96098.81;5070322;28;20242;-77
2021/11/07 04:26:08;;;;;;;10.67;7.37;;;;;;;0.24;94.53;96097.00;5071555;28;20185;-78
2021/11/07 04:28:33;;;;;;;11.27;6.87;;;;;;;0.27;94.68;96083.28;5070839;28;20196;-78
2021/11/07 04:30:59;;;;;;;10.07;7.47;;;;;;;0.30;95.11;96080.56;5083316;28;20196;-78
2021/11/07 04:33:24;;;;;;;13.73;7.77;;;;;;;0.32;94.94;96083.03;5071794;28;20188;-78
2021/11/07 04:35:50;;;;;;;9.10;6.80;;;;;;;0.31;94.64;96092.44;5053493;28;20184;-79
2021/11/07 04:38:17;;;;;;;9.30;6.43;;;;;;;0.33;94.26;96097.47;5072614;28;20192;-78
2021/11/07 04:40:42;;;;;;;8.47;5.83;;;;;;;0.28;93.94;96095.16;5069037;28;20254;-79
2021/11/07 04:43:08;;;;;;;9.83;6.47;;;;;;;0.24;93.98;96083.41;5053412;28;20809;-78
2021/11/07 04:45:33;;;;;;;8.83;6.53;;;;;;;0.21;94.16;96084.38;5069027;28;20184;-78
2021/11/07 04:47:59;;;;;;;8.30;6.13;;;;;;;0.20;94.15;96072.50;5072572;28;20186;-78
2021/11/07 04:50:24;;;;;;;8.67;6.33;;;;;;;0.22;94.45;96075.81;5061209;28;20219;-80
2021/11/07 04:52:50;;;;;;;8.07;5.47;;;;;;;0.25;94.64;96073.09;5085998;28;20184;-80
2021/11/07 04:55:15;;;;;;;8.27;6.27;;;;;;;0.23;94.36;96074.91;5075439;28;20202;-80
2021/11/07 04:57:42;;;;;;;9.30;5.70;;;;;;;0.22;94.17;96069.88;5076077;28;20208;-80
2021/11/07 05:00:18;;;;;;;7.50;5.47;;;;;;;0.21;94.33;96070.78;5083798;28;20212;-79
2021/11/07 05:02:44;;;;;;;7.73;6.10;;;;;;;0.25;94.52;96062.06;5085700;28;20176;-78
2021/11/07 05:05:09;;;;;;;7.90;5.80;;;;;;;0.24;94.39;96066.34;5092229;28;20196;-80
2021/11/07 05:07:35;;;;;;;7.97;6.10;;;;;;;0.21;94.41;96060.56;5092678;28;20182;-76
2021/11/07 05:10:00;;;;;;;9.20;5.60;;;;;;;0.17;93.85;96051.38;5089904;28;20904;-78
2021/11/07 05:12:28;;;;;;;9.23;6.33;;;;;;;0.27;94.01;96052.63;5082977;28;20562;-78
2021/11/07 05:14:53;;;;;;;8.90;5.70;;;;;;;0.21;93.92;96040.13;5074070;28;20245;-77
2021/11/07 05:17:19;;;;;;;6.10;5.17;;;;;;;0.20;93.62;96029.09;5092669;28;20537;-80
2021/11/07 05:19:44;;;;;;;10.43;6.47;;;;;;;0.19;93.96;96021.50;5094027;28;20200;-78
2021/11/07 05:22:09;;;;;;;9.93;6.17;;;;;;;0.21;94.46;96032.47;5078834;28;20188;-78
2021/11/07 05:24:35;;;;;;;10.00;5.90;;;;;;;0.24;94.23;96045.91;5078389;28;20200;-78
2021/11/07 05:27:01;;;;;;;8.97;5.67;;;;;;;0.20;94.09;96041.88;5071402;28;20177;-80
2021/11/07 05:29:26;;;;;;;10.73;6.20;;;;;;;0.27;94.03;96047.50;5070634;28;20201;-78
2021/11/07 05:31:52;;;;;;;10.27;5.43;;;;;;;0.21;93.67;96056.28;5074471;28;20180;-78
2021/11/07 05:34:17;;;;;;;7.83;5.10;;;;;;;0.21;94.36;96040.13;5064362;28;20191;-76
2021/11/07 05:36:44;;;;;;;7.40;5.47;;;;;;;0.23;93.92;96026.38;5072086;28;20208;-77
2021/11/07 05:39:11;;;;;;;8.87;5.80;;;;;;;0.33;94.33;96008.88;5090066;28;20178;-78
2021/11/07 05:41:36;;;;;;;9.60;4.30;;;;;;;0.50;93.77;95987.63;5072100;28;20176;-77
2021/11/07 05:44:02;;;;;;;6.10;4.43;;;;;;;0.59;93.76;95984.59;5079929;28;20188;-78
2021/11/07 05:46:27;;;;;;;5.77;4.37;;;;;;;0.77;93.13;95975.19;5089019;28;20209;-78
2021/11/07 05:48:52;;;;;;;5.07;4.37;;;;;;;0.80;92.42;95960.53;5072968;28;20659;-77
2021/11/07 05:51:18;;;;;;;5.43;3.80;;;;;;;0.93;91.85;95949.66;5073430;28;20663;-78
2021/11/07 05:53:44;;;;;;;5.90;4.20;;;;;;;1.07;91.84;95952.34;5064318;28;20212;-78
2021/11/07 05:56:09;;;;;;;5.27;3.50;;;;;;;1.22;90.90;95961.75;5063920;28;20185;-78
2021/11/07 05:58:35;;;;;;;7.63;3.13;;;;;;;1.29;90.41;95954.59;5086598;28;20180;-79
2021/11/07 06:01:00;;;;;;;6.00;3.63;;;;;;;1.39;90.01;95963.41;5086319;28;20621;-78
2021/11/07 06:03:25;;;;;;;3.97;3.20;;;;;;;1.31;89.46;95945.09;5085367;28;20239;-78
2021/11/07 06:05:51;;;;;;;5.00;4.00;;;;;;;1.17;89.30;95942.44;5080912;28;20551;-78
2021/11/07 06:08:16;;;;;;;4.50;4.10;;;;;;;1.15;89.27;95937.41;5091255;28;20244;-78
2021/11/07 06:10:41;;;;;;;4.63;3.83;;;;;;;1.08;88.82;95939.47;5089868;28;20694;-79
2021/11/07 06:13:06;;;;;;;7.13;3.70;;;;;;;1.14;88.83;95941.69;5090628;28;20188;-78
2021/11/07 06:15:32;;;;;;;8.23;5.53;;;;;;;1.12;89.01;95940.13;5082189;28;20396;-77
2021/11/07 06:17:57;;;;;;;3.73;3.20;;;;;;;1.20;88.57;95934.59;5067347;28;20199;-78
2021/11/07 06:20:23;;;;;;;4.27;3.37;;;;;;;1.26;88.27;95929.16;5089819;28;20200;-79
2021/11/07 06:22:48;;;;;;;6.20;2.93;;;;;;;1.28;88.04;95922.22;5072959;28;20177;-77
2021/11/07 06:25:14;;;;;;;4.47;2.47;;;;;;;1.47;85.85;95909.25;5082784;28;20888;-78
2021/11/07 06:27:40;;;;;;;6.77;2.73;;;;;;;1.51;86.23;95898.78;5083788;28;20640;-78
2021/11/07 06:30:08;;;;;;;3.73;2.87;;;;;;;1.44;87.01;95904.31;5093196;28;20583;-78
2021/11/07 06:32:34;;;;;;;3.40;2.40;;;;;;;1.53;86.76;95891.03;5092854;28;20286;-78
2021/11/07 06:34:59;;;;;;;4.90;3.10;;;;;;;1.53;86.32;95903.81;5091919;28;20200;-78
2021/11/07 06:37:25;;;;;;;4.17;2.50;;;;;;;1.63;85.89;95903.22;5058387;28;20265;-78
2021/11/07 06:39:50;;;;;;;4.53;2.73;;;;;;;1.61;85.40;95917.03;5094298;28;20552;-79
2021/11/07 06:42:15;;;;;;;2.93;2.30;;;;;;;1.76;84.78;95930.69;5094077;28;20187;-80
2021/11/07 06:44:41;;;;;;;4.83;2.70;;;;;;;1.85;84.68;95948.13;5093693;28;20180;-79
2021/11/07 06:47:08;;;;;;;5.13;2.60;;;;;;;1.92;84.75;95952.81;5081071;28;20268;-78
2021/11/07 06:49:34;;;;;;;5.03;2.77;;;;;;;1.95;84.48;95954.41;5072600;28;20201;-79
2021/11/07 06:52:00;;;;;;;14.47;8.77;;;;;;;1.72;84.00;95965.91;5072666;28;20264;-79
2021/11/07 06:54:26;;;;;;;9.37;6.20;;;;;;;1.45;84.80;95962.28;5071895;28;20184;-79
2021/11/07 06:56:52;;;;;;;6.50;5.60;;;;;;;1.54;85.06;95948.97;5073370;28;20200;-78
2021/11/07 06:59:17;;;;;;;7.73;5.57;;;;;;;1.55;85.86;95935.28;5081319;28;20254;-78
2021/11/07 07:01:43;;;;;;;5.77;4.60;;;;;;;1.57;86.81;95931.72;5092023;28;20568;-79
2021/11/07 07:04:08;;;;;;;6.03;4.53;;;;;;;1.68;87.06;95936.28;5091597;28;20180;-79
2021/11/07 07:06:35;;;;;;;5.37;3.80;;;;;;;1.82;87.23;95922.69;5093224;28;20214;-79
2021/11/07 07:09:05;;;;;;;3.90;3.23;;;;;;;2.03;86.70;95928.34;5082372;28;20180;-79
2021/11/07 07:11:36;;;;;;;4.47;3.07;;;;;;;2.17;85.73;95916.41;5092696;28;20179;-78
2021/11/07 07:14:06;;;;;;;5.60;3.30;;;;;;;2.33;85.18;95936.84;5091923;28;20261;-80
2021/11/07 07:21:38;;;;;;;2.53;2.33;;;;;;;2.72;83.64;95938.00;5085470;28;20195;-79
2021/11/07 07:32:10;;;;;;;3.47;2.33;;;;;;;3.02;82.66;95928.50;5081624;28;20176;-79
2021/11/07 07:34:38;;;;;;;3.53;2.30;;;;;;;3.15;80.60;95922.63;5060297;28;20185;-80
2021/11/07 07:37:03;;;;;;;2.93;1.90;;;;;;;3.21;78.71;95930.78;5073036;28;20672;-80
2021/11/07 07:39:28;;;;;;;1.70;1.50;;;;;;;3.39;77.25;95937.34;5074675;28;20231;-80
2021/11/07 07:41:54;;;;;;;1.50;1.27;;;;;;;3.49;75.81;95945.31;5080579;28;20719;-80
2021/11/07 07:44:21;;;;;;;1.33;1.23;;;;;;;3.59;75.52;95946.38;5081362;28;20181;-79
2021/11/07 07:46:47;;;;;;;1.80;1.50;;;;;;;3.70;74.71;95946.53;5060152;28;20305;-79
2021/11/07 07:49:16;;;;;;;2.07;1.13;;;;;;;3.77;72.70;95939.28;5073697;28;20213;-79
2021/11/07 07:51:41;;;;;;;5.30;1.40;;;;;;;3.87;71.07;95937.75;5065068;28;20211;-80
2021/11/07 07:54:08;;;;;;;1.07;1.00;;;;;;;3.97;70.42;95931.13;5072538;28;20243;-80
2021/11/07 07:56:35;;;;;;;3.20;1.27;;;;;;;3.99;69.67;95933.59;5072861;28;20209;-80
2021/11/07 07:59:01;;;;;;;1.47;1.37;;;;;;;3.92;68.44;95935.75;5056788;28;20556;-80
2021/11/07 08:01:27;;;;;;;2.37;1.27;;;;;;;4.02;68.84;95938.53;5076939;28;20195;-79
2021/11/07 08:03:53;;;;;;;2.13;1.20;;;;;;;3.93;68.63;95936.56;5080834;28;20604;-82
2021/11/07 08:06:18;;;;;;;1.83;1.13;;;;;;;3.85;68.88;95938.78;5055620;28;20181;-80
2021/11/07 08:08:43;;;;;;;2.80;1.00;;;;;;;4.00;68.18;95944.72;5073282;28;20193;-80
2021/11/07 08:11:09;;;;;;;1.90;0.90;;;;;;;3.91;66.92;95938.41;5073071;28;20189;-79
2021/11/07 08:13:34;;;;;;;2.67;1.53;;;;;;;4.03;68.34;95927.34;5083127;28;20183;-80
2021/11/07 08:16:00;;;;;;;1.37;1.27;;;;;;;3.94;68.46;95910.75;5081717;28;20181;-80
2021/11/07 08:18:26;;;;;;;1.30;1.13;;;;;;;3.96;69.39;95897.81;5074496;28;20184;-79
2021/11/07 08:20:51;;;;;;;2.43;1.50;;;;;;;3.99;69.74;95910.47;5093067;28;20685;-80
2021/11/07 08:23:17;;;;;;;1.40;1.30;;;;;;;4.01;70.30;95910.38;5088685;28;20181;-80
2021/11/07 08:25:43;;;;;;;1.80;1.60;;;;;;;3.97;70.78;95904.59;5083670;28;20267;-79
2021/11/07 08:28:08;;;;;;;2.33;1.37;;;;;;;3.97;70.52;95899.44;5092102;28;20164;-79
2021/11/07 08:30:39;;;;;;;2.50;1.53;;;;;;;3.87;71.25;95898.41;5091533;28;20185;-79
2021/11/07 08:33:06;;;;;;;2.57;1.60;;;;;;;3.93;71.58;95895.44;5069049;28;20189;-78
2021/11/07 08:35:31;;;;;;;4.20;2.00;;;;;;;3.96;71.85;95892.66;5073196;28;20188;-79
2021/11/07 08:38:02;;;;;;;2.67;1.20;;;;;;;4.04;72.23;95905.03;5091684;28;20206;-79
2021/11/07 08:40:39;;;;;;;2.10;1.90;;;;;;;4.13;72.37;95900.13;5091690;28;20238;-79
2021/11/07 08:43:11;;;;;;;2.20;1.37;;;;;;;4.48;72.58;95900.38;5074127;28;20226;-79
2021/11/07 09:04:42;;;;;;;1.53;1.40;;;;;;;5.32;72.72;95883.53;5080757;28;20652;-78
2021/11/07 09:09:45;;;;;;;2.30;1.20;;;;;;;5.39;72.82;95861.56;5082988;28;20671;-78
2021/11/07 09:12:12;;;;;;;2.63;1.87;;;;;;;5.64;72.98;95870.94;5088336;28;20179;-79
2021/11/07 09:14:39;;;;;;;4.03;1.73;;;;;;;5.88;72.26;95876.91;5064863;28;20637;-79
2021/11/07 09:17:07;;;;;;;4.60;1.80;;;;;;;5.95;71.96;95867.84;5071066;28;20203;-79
2021/11/07 09:19:35;;;;;;;3.17;2.87;;;;;;;6.23;71.55;95876.94;5054272;28;20763;-80
2021/11/07 09:22:11;;;;;;;3.43;2.40;;;;;;;6.25;71.59;95871.66;5064265;28;20176;-80
2021/11/07 09:24:46;;;;;;;3.87;1.80;;;;;;;6.38;71.22;95876.75;5077940;28;20196;-80
2021/11/07 09:27:37;;;;;;;5.23;2.30;;;;;;;6.49;71.16;95885.34;5062087;28;20168;-79
2021/11/07 09:30:20;;;;;;;3.07;1.63;;;;;;;6.54;70.64;95882.44;5091836;28;20209;-81
2021/11/07 09:40:18;;;;;;;2.23;1.90;;;;;;;7.29;69.39;95880.09;5095172;28;20223;-79
2021/11/07 09:42:57;;;;;;;4.33;3.90;;;;;;;7.21;68.38;95863.53;5090079;28;20208;-78
2021/11/07 09:45:31;;;;;;;2.17;1.70;;;;;;;7.44;68.83;95874.69;5081026;28;20671;-78
2021/11/07 09:48:05;;;;;;;2.67;1.30;;;;;;;7.65;68.60;95878.97;5072373;28;20240;-80
2021/11/07 09:50:31;;;;;;;1.50;1.10;;;;;;;7.89;68.35;95872.78;5072320;28;20196;-79
2021/11/07 09:52:57;;;;;;;3.47;0.70;;;;;;;8.10;66.89;95876.22;5054309;28;20736;-79
2021/11/07 09:55:25;;;;;;;3.20;2.93;;;;;;;8.27;66.44;95879.19;5065425;28;20181;-79
2021/11/07 09:57:53;;;;;;;2.00;0.97;;;;;;;8.52;66.19;95871.09;5075644;28;20207;-79
2021/11/07 10:00:25;;;;;;;1.10;0.80;;;;;;;8.42;65.64;95885.75;5091938;28;20188;-79
2021/11/07 10:02:51;;;;;;;1.27;0.90;;;;;;;8.19;67.23;95885.81;5088481;28;20675;-78
2021/11/07 10:05:18;;;;;;;2.13;1.47;;;;;;;8.11;67.56;95875.25;5088015;28;20180;-79
2021/11/07 10:07:44;;;;;;;1.60;0.90;;;;;;;8.00;67.60;95869.34;5097163;28;20165;-79
2021/11/07 10:10:20;;;;;;;1.13;0.77;;;;;;;7.92;68.14;95868.19;5095690;28;20690;-80
2021/11/07 10:12:51;;;;;;;1.73;0.80;;;;;;;8.13;68.11;95847.53;5091702;28;20180;-79
2021/11/07 10:15:29;;;;;;;1.07;0.97;;;;;;;8.22;67.14;95854.53;5069236;28;20256;-79
2021/11/07 10:18:04;;;;;;;1.23;0.60;;;;;;;8.19;67.84;95851.38;5074344;28;20285;-79
2021/11/07 10:20:37;;;;;;;1.90;0.97;;;;;;;8.49;67.92;95859.25;5076720;28;20197;-78
2021/11/07 10:23:18;;;;;;;1.20;0.97;;;;;;;8.55;67.41;95855.31;5076693;28;20181;-79
2021/11/07 10:25:49;;;;;;;2.57;0.83;;;;;;;8.49;67.15;95855.84;5088266;28;20671;-80
2021/11/07 10:28:28;;;;;;;2.80;1.20;;;;;;;8.59;66.88;95859.28;5079307;28;20641;-80
2021/11/07 10:31:18;;;;;;;1.87;0.70;;;;;;;8.84;65.58;95846.88;5095686;28;20196;-78
2021/11/07 10:42:20;;;;;;;2.10;0.70;;;;;;;8.55;66.64;95837.19;5076462;28;20671;-78
2021/11/07 10:52:47;;;;;;;4.57;2.20;;;;;;;8.31;67.51;95821.09;5094539;28;20183;-78
2021/11/07 10:55:25;;;;;;;3.83;1.73;;;;;;;8.47;67.38;95819.69;5090049;28;20590;-79
2021/11/07 10:57:53;;;;;;;1.63;1.20;;;;;;;8.52;67.63;95811.56;5085923;28;20200;-78
2021/11/07 11:00:24;;;;;;;1.00;0.90;;;;;;;8.68;67.27;95821.47;5094071;28;20188;-78
2021/11/07 11:03:12;;;;;;;2.67;0.93;;;;;;;8.80;66.56;95813.47;5095290;28;20168;-80
2021/11/07 11:06:00;;;;;;;2.13;1.57;;;;;;;8.76;66.55;95819.88;5073829;28;20188;-79
2021/11/07 11:08:29;;;;;;;0.70;0.63;;;;;;;8.60;66.59;95822.09;5090017;28;20182;-79
2021/11/07 11:13:48;;;;;;;1.10;0.90;;;;;;;8.80;66.61;95821.22;5072649;28;20181;-79
2021/11/07 11:25:17;;;;;;;2.70;1.27;;;;;;;8.58;68.48;95828.38;5093191;28;20195;-78
2021/11/07 11:33:40;;;;;;;2.67;0.83;;;;;;;8.80;68.92;95813.47;5093704;28;20168;-79
2021/11/07 11:38:38;;;;;;;3.03;1.20;;;;;;;8.83;69.13;95812.38;5086810;28;20213;-78
2021/11/07 11:43:34;;;;;;;3.90;1.00;;;;;;;9.67;67.48;95820.63;5092867;28;20183;-79
2021/11/07 11:46:13;;;;;;;3.70;2.43;;;;;;;9.01;69.21;95807.41;5094673;28;20187;-78
2021/11/07 11:57:42;;;;;;;3.07;1.90;;;;;;;8.86;70.26;95798.38;5074507;28;20292;-79
2021/11/07 12:05:56;;;;;;;1.23;1.13;;;;;;;8.26;72.95;95798.19;5094860;28;20184;-79
2021/11/07 12:10:59;;;;;;;2.27;1.47;;;;;;;8.15;74.10;95791.31;5084644;28;20714;-77
2021/11/07 12:13:48;;;;;;;0.73;0.73;;;;;;;8.11;74.57;95784.72;5084249;28;20754;-78
2021/11/07 12:16:26;;;;;;;1.67;1.07;;;;;;;8.20;74.33;95791.72;5094725;28;20160;-79
2021/11/07 12:19:03;;;;;;;1.10;0.77;;;;;;;8.06;75.04;95794.66;5092184;28;20199;-78
2021/11/07 12:21:47;;;;;;;1.80;0.90;;;;;;;7.83;75.45;95785.38;5062475;28;20187;-78
2021/11/07 12:24:13;;;;;;;1.97;1.30;;;;;;;8.01;75.40;95789.03;5090340;28;20345;-80
2021/11/07 12:26:38;;;;;;;1.27;0.97;;;;;;;7.98;75.94;95786.72;5093649;28;20192;-80
2021/11/07 12:29:04;;;;;;;1.17;1.00;;;;;;;8.11;75.55;95784.72;5093167;28;20639;-81
2021/11/07 12:31:31;;;;;;;1.97;1.03;;;;;;;7.87;76.06;95787.59;5071994;28;20174;-79
2021/11/07 12:34:04;;;;;;;1.70;0.87;;;;;;;7.84;77.05;95779.25;5080161;28;20605;-79
2021/11/07 12:36:41;;;;;;;2.60;0.77;;;;;;;7.89;77.69;95780.53;5072938;28;20615;-80
2021/11/07 12:42:16;;;;;;;1.90;0.77;;;;;;;7.91;77.98;95788.16;5073999;28;20196;-80
2021/11/07 12:44:47;;;;;;;0.97;0.80;;;;;;;7.64;78.92;95786.84;5084016;28;20497;-80
2021/11/07 12:47:13;;;;;;;1.23;0.80;;;;;;;7.63;80.05;95784.41;5092829;28;20537;-80
2021/11/07 12:49:40;;;;;;;0.70;0.70;;;;;;;7.70;80.60;95779.56;5075730;28;20572;-79
2021/11/07 12:52:05;;;;;;;1.80;1.00;;;;;;;7.64;80.99;95778.28;5073815;28;20202;-80
2021/11/07 12:54:33;;;;;;;2.27;1.30;;;;;;;7.52;80.73;95777.50;5081011;28;20189;-80
2021/11/07 12:57:06;;;;;;;1.60;1.20;;;;;;;7.51;81.05;95785.38;5061534;28;20750;-80
2021/11/07 12:59:35;;;;;;;1.63;1.53;;;;;;;7.44;80.57;95789.41;5071800;28;20742;-79
2021/11/07 13:02:10;;;;;;;4.33;2.77;;;;;;;7.46;80.77;95788.34;5072578;28;20181;-80
2021/11/07 13:05:06;;;;;;;4.37;3.40;;;;;;;7.54;80.02;95787.72;5080820;28;20203;-80
2021/11/07 13:10:17;;;;;;;1.20;1.10;;;;;;;7.46;79.83;95783.16;5092745;28;20200;-79
2021/11/07 13:12:45;;;;;;;1.10;1.00;;;;;;;7.50;80.42;95774.22;5076062;28;20715;-79
2021/11/07 13:25:51;;;;;;;0.97;0.80;;;;;;;7.67;84.01;95750.41;5084218;28;20560;-80
2021/11/07 13:31:12;;;;;;;2.50;1.30;;;;;;;7.59;84.12;95751.97;5092220;28;20204;-79
2021/11/07 13:33:39;;;;;;;1.20;1.10;;;;;;;7.54;84.35;95756.72;5075038;28;20226;-80
2021/11/07 13:36:05;;;;;;;4.57;3.33;;;;;;;7.52;83.39;95758.59;5067566;28;20180;-80
2021/11/07 13:38:37;;;;;;;3.27;2.13;;;;;;;7.47;84.14;95756.38;5063100;28;20219;-79
2021/11/07 13:41:10;;;;;;;17.40;11.60;;;;;;;7.46;84.07;95752.16;5071865;28;20189;-78
2021/11/07 13:43:37;;;;;;;10.83;6.60;;;;;;;7.35;84.57;95763.34;5054333;28;20256;-80
2021/11/07 13:46:04;;;;;;;17.93;10.73;;;;;;;7.27;84.77;95752.00;5073535;28;20526;-80
2021/11/07 13:48:30;;;;;;;2.57;2.07;;;;;;;7.23;84.35;95746.22;5065911;28;20271;-79
2021/11/07 13:50:58;;;;;;;1.70;1.60;;;;;;;7.28;84.72;95748.47;5091879;28;20207;-80
2021/11/07 13:53:26;;;;;;;1.83;1.47;;;;;;;7.16;85.51;95749.44;5075336;28;20217;-79
2021/11/07 13:55:53;;;;;;;1.27;1.10;;;;;;;7.19;85.12;95764.69;5091966;28;20176;-80
2021/11/07 13:58:25;;;;;;;1.17;1.03;;;;;;;7.15;85.46;95755.53;5079993;28;20291;-78
2021/11/07 14:00:53;;;;;;;1.10;1.00;;;;;;;6.96;86.20;95772.47;5074713;28;20243;-80
2021/11/07 14:03:21;;;;;;;1.70;1.60;;;;;;;7.07;86.49;95754.41;5081024;28;20171;-79